sensor_id;sensor_type;location;lat;lon;timestamp;pressure;altitude;pressure_sealevel;temperature;humidity
55171;BME280;41060;47.510;8.680;2022-11-24T00:01:27;96599.84;;;8.85;59.50
55171;BME280;41060;47.510;8.680;2022-11-24T00:03:56;96594.09;;;8.79;59.35
55171;BME280;41060;47.510;8.680;2022-11-24T00:06:23;96589.66;;;8.69;59.59
55171;BME280;41060;47.510;8.680;2022-11-24T00:08:51;96588.38;;;8.63;60.22
55171;BME280;41060;47.510;8.680;2022-11-24T00:11:21;96587.75;;;8.71;59.69
55171;BME280;41060;47.510;8.680;2022-11-24T00:13:48;96590.84;;;8.87;59.28
55171;BME280;41060;47.510;8.680;2022-11-24T00:16:17;96584.16;;;8.72;59.71
55171;BME280;41060;47.510;8.680;2022-11-24T00:18:47;96597.91;;;8.87;59.50
55171;BME280;41060;47.510;8.680;2022-11-24T00:21:15;96596.66;;;8.59;59.99
55171;BME280;41060;47.510;8.680;2022-11-24T00:23:43;96585.00;;;8.72;59.51
55171;BME280;41060;47.510;8.680;2022-11-24T00:26:12;96563.28;;;8.69;59.08
55171;BME280;41060;47.510;8.680;2022-11-24T00:28:40;96585.72;;;8.74;58.72
55171;BME280;41060;47.510;8.680;2022-11-24T00:31:17;96608.97;;;8.81;59.15
55171;BME280;41060;47.510;8.680;2022-11-24T00:33:47;96580.94;;;8.57;59.51
55171;BME280;41060;47.510;8.680;2022-11-24T00:36:14;96612.81;;;8.76;59.33
55171;BME280;41060;47.510;8.680;2022-11-24T00:38:42;96617.84;;;8.79;59.36
55171;BME280;41060;47.510;8.680;2022-11-24T00:41:09;96625.81;;;8.68;59.97
55171;BME280;41060;47.510;8.680;2022-11-24T00:43:36;96619.75;;;8.77;59.67
55171;BME280;41060;47.510;8.680;2022-11-24T00:46:03;96615.81;;;8.83;59.81
55171;BME280;41060;47.510;8.680;2022-11-24T00:48:30;96614.38;;;8.79;59.87
55171;BME280;41060;47.510;8.680;2022-11-24T00:51:00;96634.31;;;8.50;60.77
55171;BME280;41060;47.510;8.680;2022-11-24T00:53:28;96631.09;;;8.46;61.27
55171;BME280;41060;47.510;8.680;2022-11-24T00:55:55;96639.00;;;8.46;61.51
55171;BME280;41060;47.510;8.680;2022-11-24T00:58:23;96629.88;;;8.72;60.25
55171;BME280;41060;47.510;8.680;2022-11-24T01:00:50;96632.47;;;8.95;59.77
55171;BME280;41060;47.510;8.680;2022-11-24T01:03:19;96640.25;;;8.96;59.50
55171;BME280;41060;47.510;8.680;2022-11-24T01:05:46;96650.72;;;8.98;59.94
55171;BME280;41060;47.510;8.680;2022-11-24T01:08:14;96655.88;;;8.88;60.10
55171;BME280;41060;47.510;8.680;2022-11-24T01:10:41;96662.50;;;8.83;60.29
55171;BME280;41060;47.510;8.680;2022-11-24T01:13:08;96660.56;;;8.85;60.49
55171;BME280;41060;47.510;8.680;2022-11-24T01:15:36;96657.44;;;8.91;60.16
55171;BME280;41060;47.510;8.680;2022-11-24T01:18:04;96649.72;;;8.99;59.68
55171;BME280;41060;47.510;8.680;2022-11-24T01:20:31;96670.13;;;9.08;60.09
55171;BME280;41060;47.510;8.680;2022-11-24T01:23:00;96673.44;;;9.21;59.82
55171;BME280;41060;47.510;8.680;2022-11-24T01:25:29;96664.66;;;8.89;60.29
55171;BME280;41060;47.510;8.680;2022-11-24T01:27:56;96657.63;;;8.99;59.92
55171;BME280;41060;47.510;8.680;2022-11-24T01:30:22;96686.03;;;9.40;59.47
55171;BME280;41060;47.510;8.680;2022-11-24T01:32:49;96690.59;;;9.38;59.15
55171;BME280;41060;47.510;8.680;2022-11-24T01:35:16;96674.50;;;9.41;59.19
55171;BME280;41060;47.510;8.680;2022-11-24T01:37:43;96691.41;;;9.49;58.58
55171;BME280;41060;47.510;8.680;2022-11-24T01:40:11;96699.06;;;9.64;58.45
55171;BME280;41060;47.510;8.680;2022-11-24T01:42:47;96697.47;;;9.72;58.21
55171;BME280;41060;47.510;8.680;2022-11-24T01:45:36;96699.84;;;9.75;57.84
55171;BME280;41060;47.510;8.680;2022-11-24T01:48:06;96695.38;;;9.76;57.88
55171;BME280;41060;47.510;8.680;2022-11-24T01:50:34;96701.13;;;9.81;58.17
55171;BME280;41060;47.510;8.680;2022-11-24T01:53:02;96706.56;;;9.79;57.84
55171;BME280;41060;47.510;8.680;2022-11-24T01:55:32;96703.38;;;9.65;57.78
55171;BME280;41060;47.510;8.680;2022-11-24T01:58:05;96708.19;;;9.60;58.54
55171;BME280;41060;47.510;8.680;2022-11-24T02:00:34;96715.66;;;9.54;58.47
55171;BME280;41060;47.510;8.680;2022-11-24T02:03:02;96726.75;;;9.15;59.25
55171;BME280;41060;47.510;8.680;2022-11-24T02:05:33;96727.16;;;9.10;59.68
55171;BME280;41060;47.510;8.680;2022-11-24T02:08:03;96730.66;;;8.89;60.42
55171;BME280;41060;47.510;8.680;2022-11-24T02:10:32;96725.56;;;9.08;59.53
55171;BME280;41060;47.510;8.680;2022-11-24T02:12:58;96722.25;;;9.06;59.13
55171;BME280;41060;47.510;8.680;2022-11-24T02:15:27;96732.78;;;9.17;59.21
55171;BME280;41060;47.510;8.680;2022-11-24T02:17:55;96717.56;;;8.98;59.14
55171;BME280;41060;47.510;8.680;2022-11-24T02:20:24;96741.44;;;8.86;59.80
55171;BME280;41060;47.510;8.680;2022-11-24T02:22:56;96738.19;;;8.93;60.07
55171;BME280;41060;47.510;8.680;2022-11-24T02:25:31;96694.78;;;8.64;59.78
55171;BME280;41060;47.510;8.680;2022-11-24T02:28:05;96712.41;;;8.86;59.62
55171;BME280;41060;47.510;8.680;2022-11-24T02:30:32;96734.72;;;8.93;59.82
55171;BME280;41060;47.510;8.680;2022-11-24T02:32:59;96744.06;;;8.63;60.88
55171;BME280;41060;47.510;8.680;2022-11-24T02:35:27;96751.41;;;8.71;60.47
55171;BME280;41060;47.510;8.680;2022-11-24T02:37:54;96752.25;;;8.83;59.95
55171;BME280;41060;47.510;8.680;2022-11-24T02:40:23;96756.06;;;8.78;60.71
55171;BME280;41060;47.510;8.680;2022-11-24T02:42:53;96753.44;;;8.90;60.31
55171;BME280;41060;47.510;8.680;2022-11-24T02:45:23;96761.34;;;8.78;60.40
55171;BME280;41060;47.510;8.680;2022-11-24T02:47:52;96753.56;;;8.88;59.75
55171;BME280;41060;47.510;8.680;2022-11-24T02:50:18;96758.94;;;9.09;59.56
55171;BME280;41060;47.510;8.680;2022-11-24T02:52:47;96752.59;;;9.11;59.55
55171;BME280;41060;47.510;8.680;2022-11-24T02:55:14;96745.28;;;9.26;58.71
55171;BME280;41060;47.510;8.680;2022-11-24T02:57:41;96745.88;;;9.18;59.03
55171;BME280;41060;47.510;8.680;2022-11-24T03:00:09;96751.53;;;9.25;58.87
55171;BME280;41060;47.510;8.680;2022-11-24T03:02:38;96749.22;;;9.09;58.98
55171;BME280;41060;47.510;8.680;2022-11-24T03:05:04;96748.75;;;9.04;59.18
55171;BME280;41060;47.510;8.680;2022-11-24T03:07:31;96760.78;;;8.97;58.81
55171;BME280;41060;47.510;8.680;2022-11-24T03:09:58;96728.59;;;8.92;58.44
55171;BME280;41060;47.510;8.680;2022-11-24T03:12:25;96754.75;;;9.06;58.60
55171;BME280;41060;47.510;8.680;2022-11-24T03:14:52;96756.66;;;9.15;58.41
55171;BME280;41060;47.510;8.680;2022-11-24T03:17:19;96756.06;;;9.23;58.04
55171;BME280;41060;47.510;8.680;2022-11-24T03:19:47;96757.66;;;9.26;58.18
55171;BME280;41060;47.510;8.680;2022-11-24T03:22:14;96756.09;;;9.12;58.29
55171;BME280;41060;47.510;8.680;2022-11-24T03:24:41;96751.50;;;9.14;58.09
55171;BME280;41060;47.510;8.680;2022-11-24T03:27:08;96745.75;;;8.87;58.81
55171;BME280;41060;47.510;8.680;2022-11-24T03:29:35;96740.94;;;8.92;58.83
55171;BME280;41060;47.510;8.680;2022-11-24T03:32:02;96751.28;;;8.61;59.60
55171;BME280;41060;47.510;8.680;2022-11-24T03:34:29;96750.44;;;8.72;59.42
55171;BME280;41060;47.510;8.680;2022-11-24T03:36:57;96754.28;;;8.68;59.44
55171;BME280;41060;47.510;8.680;2022-11-24T03:39:24;96750.66;;;8.69;59.04
55171;BME280;41060;47.510;8.680;2022-11-24T03:41:51;96747.31;;;8.67;59.30
55171;BME280;41060;47.510;8.680;2022-11-24T03:44:17;96754.28;;;8.68;58.96
55171;BME280;41060;47.510;8.680;2022-11-24T03:46:45;96752.94;;;8.85;58.67
55171;BME280;41060;47.510;8.680;2022-11-24T03:49:11;96755.84;;;8.82;58.31
55171;BME280;41060;47.510;8.680;2022-11-24T03:51:38;96772.16;;;8.75;58.66
55171;BME280;41060;47.510;8.680;2022-11-24T03:54:07;96755.84;;;8.70;58.87
55171;BME280;41060;47.510;8.680;2022-11-24T03:56:33;96688.41;;;8.55;58.17
55171;BME280;41060;47.510;8.680;2022-11-24T03:59:00;96748.88;;;8.69;58.77
55171;BME280;41060;47.510;8.680;2022-11-24T04:01:27;96742.16;;;8.65;58.40
55171;BME280;41060;47.510;8.680;2022-11-24T04:03:54;96754.75;;;8.73;58.31
55171;BME280;41060;47.510;8.680;2022-11-24T04:06:23;96753.94;;;8.61;58.48
55171;BME280;41060;47.510;8.680;2022-11-24T04:08:50;96702.69;;;8.30;58.65
55171;BME280;41060;47.510;8.680;2022-11-24T04:11:18;96771.09;;;8.67;58.33
55171;BME280;41060;47.510;8.680;2022-11-24T04:14:03;96776.25;;;8.79;58.13
55171;BME280;41060;47.510;8.680;2022-11-24T04:16:30;96759.44;;;8.81;57.43
55171;BME280;41060;47.510;8.680;2022-11-24T04:18:58;96778.91;;;8.91;57.20
55171;BME280;41060;47.510;8.680;2022-11-24T04:21:25;96781.28;;;8.83;57.35
55171;BME280;41060;47.510;8.680;2022-11-24T04:23:51;96784.66;;;8.96;57.03
55171;BME280;41060;47.510;8.680;2022-11-24T04:26:22;96793.16;;;8.88;57.29
55171;BME280;41060;47.510;8.680;2022-11-24T04:28:49;96786.44;;;8.84;57.25
55171;BME280;41060;47.510;8.680;2022-11-24T04:31:16;96789.56;;;8.89;57.07
55171;BME280;41060;47.510;8.680;2022-11-24T04:33:43;96794.00;;;8.89;56.94
55171;BME280;41060;47.510;8.680;2022-11-24T04:36:10;96794.94;;;8.76;57.39
55171;BME280;41060;47.510;8.680;2022-11-24T04:38:37;96805.75;;;8.73;57.75
55171;BME280;41060;47.510;8.680;2022-11-24T04:41:04;96804.81;;;8.74;57.55
55171;BME280;41060;47.510;8.680;2022-11-24T04:43:34;96799.28;;;8.77;57.77
55171;BME280;41060;47.510;8.680;2022-11-24T04:46:01;96767.56;;;8.55;57.32
55171;BME280;41060;47.510;8.680;2022-11-24T04:48:28;96810.31;;;8.71;57.40
55171;BME280;41060;47.510;8.680;2022-11-24T04:50:55;96823.38;;;8.73;57.46
55171;BME280;41060;47.510;8.680;2022-11-24T04:53:22;96820.50;;;8.65;57.26
55171;BME280;41060;47.510;8.680;2022-11-24T04:55:50;96812.00;;;8.72;57.28
55171;BME280;41060;47.510;8.680;2022-11-24T04:58:17;96825.66;;;8.66;57.05
55171;BME280;41060;47.510;8.680;2022-11-24T05:00:45;96828.53;;;8.63;56.92
55171;BME280;41060;47.510;8.680;2022-11-24T05:03:12;96829.84;;;8.69;56.92
55171;BME280;41060;47.510;8.680;2022-11-24T05:05:39;96836.44;;;8.52;57.90
55171;BME280;41060;47.510;8.680;2022-11-24T05:08:05;96829.22;;;8.54;57.20
55171;BME280;41060;47.510;8.680;2022-11-24T05:10:35;96843.41;;;8.64;57.02
55171;BME280;41060;47.510;8.680;2022-11-24T05:13:03;96842.72;;;8.85;56.88
55171;BME280;41060;47.510;8.680;2022-11-24T05:15:30;96835.78;;;8.95;56.30
55171;BME280;41060;47.510;8.680;2022-11-24T05:17:58;96843.31;;;8.77;56.63
55171;BME280;41060;47.510;8.680;2022-11-24T05:20:26;96838.38;;;8.72;56.74
55171;BME280;41060;47.510;8.680;2022-11-24T05:22:52;96841.16;;;8.82;56.62
55171;BME280;41060;47.510;8.680;2022-11-24T05:25:19;96833.13;;;8.95;56.70
55171;BME280;41060;47.510;8.680;2022-11-24T05:27:46;96842.38;;;9.00;56.13
55171;BME280;41060;47.510;8.680;2022-11-24T05:30:12;96838.19;;;8.98;56.00
55171;BME280;41060;47.510;8.680;2022-11-24T05:32:39;96830.50;;;8.95;55.80
55171;BME280;41060;47.510;8.680;2022-11-24T05:35:08;96836.63;;;9.06;56.38
55171;BME280;41060;47.510;8.680;2022-11-24T05:37:35;96838.19;;;9.09;55.96
55171;BME280;41060;47.510;8.680;2022-11-24T05:40:03;96840.47;;;9.13;55.79
55171;BME280;41060;47.510;8.680;2022-11-24T05:42:31;96843.22;;;8.90;56.23
55171;BME280;41060;47.510;8.680;2022-11-24T05:45:09;96854.38;;;8.82;56.59
55171;BME280;41060;47.510;8.680;2022-11-24T05:47:37;96846.41;;;8.71;56.43
55171;BME280;41060;47.510;8.680;2022-11-24T05:50:05;96849.44;;;8.77;56.38
55171;BME280;41060;47.510;8.680;2022-11-24T05:52:33;96854.25;;;8.84;56.08
55171;BME280;41060;47.510;8.680;2022-11-24T05:55:00;96846.94;;;9.09;55.22
55171;BME280;41060;47.510;8.680;2022-11-24T05:57:27;96847.69;;;9.11;55.64
55171;BME280;41060;47.510;8.680;2022-11-24T05:59:53;96849.22;;;9.14;55.14
55171;BME280;41060;47.510;8.680;2022-11-24T06:02:20;96851.28;;;9.10;54.96
55171;BME280;41060;47.510;8.680;2022-11-24T06:04:47;96846.59;;;9.14;55.33
55171;BME280;41060;47.510;8.680;2022-11-24T06:07:14;96850.81;;;9.05;55.40
55171;BME280;41060;47.510;8.680;2022-11-24T06:09:43;96846.72;;;9.12;54.97
55171;BME280;41060;47.510;8.680;2022-11-24T06:12:10;96847.69;;;9.11;55.26
55171;BME280;41060;47.510;8.680;2022-11-24T06:14:37;96851.66;;;9.06;55.11
55171;BME280;41060;47.510;8.680;2022-11-24T06:17:05;96846.38;;;9.06;55.10
55171;BME280;41060;47.510;8.680;2022-11-24T06:19:31;96854.75;;;8.89;55.69
55171;BME280;41060;47.510;8.680;2022-11-24T06:21:58;96807.06;;;8.68;55.44
55171;BME280;41060;47.510;8.680;2022-11-24T06:24:25;96841.53;;;8.89;55.90
55171;BME280;41060;47.510;8.680;2022-11-24T06:26:53;96837.06;;;8.78;55.33
55171;BME280;41060;47.510;8.680;2022-11-24T06:29:20;96848.47;;;8.78;55.55
55171;BME280;41060;47.510;8.680;2022-11-24T06:31:47;96859.06;;;9.01;55.27
55171;BME280;41060;47.510;8.680;2022-11-24T06:34:13;96857.53;;;8.98;55.62
55171;BME280;41060;47.510;8.680;2022-11-24T06:36:40;96854.28;;;9.17;55.03
55171;BME280;41060;47.510;8.680;2022-11-24T06:39:07;96853.50;;;9.28;54.29
55171;BME280;41060;47.510;8.680;2022-11-24T06:41:35;96857.44;;;9.33;54.46
55171;BME280;41060;47.510;8.680;2022-11-24T06:44:03;96863.09;;;9.40;54.05
55171;BME280;41060;47.510;8.680;2022-11-24T06:46:31;96858.03;;;9.48;53.58
55171;BME280;41060;47.510;8.680;2022-11-24T06:48:58;96846.84;;;9.44;53.46
55171;BME280;41060;47.510;8.680;2022-11-24T06:51:25;96859.13;;;9.57;53.55
55171;BME280;41060;47.510;8.680;2022-11-24T06:53:52;96860.41;;;9.62;53.10
55171;BME280;41060;47.510;8.680;2022-11-24T06:56:20;96848.78;;;9.65;53.44
55171;BME280;41060;47.510;8.680;2022-11-24T06:58:48;96849.34;;;9.68;53.19
55171;BME280;41060;47.510;8.680;2022-11-24T07:01:19;96846.31;;;9.73;53.18
55171;BME280;41060;47.510;8.680;2022-11-24T07:03:46;96836.13;;;9.68;53.31
55171;BME280;41060;47.510;8.680;2022-11-24T07:06:13;96831.09;;;9.65;53.38
55171;BME280;41060;47.510;8.680;2022-11-24T07:08:41;96839.88;;;9.54;53.28
55171;BME280;41060;47.510;8.680;2022-11-24T07:11:09;96845.53;;;9.39;54.07
55171;BME280;41060;47.510;8.680;2022-11-24T07:13:36;96852.97;;;9.45;53.83
55171;BME280;41060;47.510;8.680;2022-11-24T07:16:12;96848.41;;;9.36;54.21
55171;BME280;41060;47.510;8.680;2022-11-24T07:18:41;96859.81;;;9.36;54.04
55171;BME280;41060;47.510;8.680;2022-11-24T07:21:08;96850.84;;;9.28;54.68
55171;BME280;41060;47.510;8.680;2022-11-24T07:23:35;96851.78;;;9.49;54.05
55171;BME280;41060;47.510;8.680;2022-11-24T07:26:02;96844.22;;;9.44;53.99
55171;BME280;41060;47.510;8.680;2022-11-24T07:28:30;96856.22;;;9.48;54.10
55171;BME280;41060;47.510;8.680;2022-11-24T07:30:57;96854.19;;;9.41;54.18
55171;BME280;41060;47.510;8.680;2022-11-24T07:33:24;96850.47;;;9.54;54.29
55171;BME280;41060;47.510;8.680;2022-11-24T07:35:52;96850.81;;;9.61;53.95
55171;BME280;41060;47.510;8.680;2022-11-24T07:38:19;96863.81;;;9.42;53.81
55171;BME280;41060;47.510;8.680;2022-11-24T07:40:46;96862.44;;;9.59;54.35
55171;BME280;41060;47.510;8.680;2022-11-24T07:43:13;96863.91;;;9.51;53.74
55171;BME280;41060;47.510;8.680;2022-11-24T07:45:39;96856.69;;;9.65;53.77
55171;BME280;41060;47.510;8.680;2022-11-24T07:48:06;96867.13;;;9.77;53.35
55171;BME280;41060;47.510;8.680;2022-11-24T07:50:33;96866.97;;;9.90;53.23
55171;BME280;41060;47.510;8.680;2022-11-24T07:53:02;96871.19;;;9.92;53.25
55171;BME280;41060;47.510;8.680;2022-11-24T07:55:29;96892.56;;;10.01;52.86
55171;BME280;41060;47.510;8.680;2022-11-24T07:57:58;96821.00;;;9.70;52.40
55171;BME280;41060;47.510;8.680;2022-11-24T08:00:25;96889.69;;;9.92;53.33
55171;BME280;41060;47.510;8.680;2022-11-24T08:02:52;96896.53;;;9.95;53.34
55171;BME280;41060;47.510;8.680;2022-11-24T08:05:20;96908.66;;;9.98;52.66
55171;BME280;41060;47.510;8.680;2022-11-24T08:07:46;96908.53;;;9.21;54.62
55171;BME280;41060;47.510;8.680;2022-11-24T08:10:15;96918.25;;;9.09;55.16
55171;BME280;41060;47.510;8.680;2022-11-24T08:12:42;96922.41;;;9.36;54.78
55171;BME280;41060;47.510;8.680;2022-11-24T08:15:09;96578.78;;;7.03;55.95
55171;BME280;41060;47.510;8.680;2022-11-24T08:17:36;96935.75;;;8.88;56.32
55171;BME280;41060;47.510;8.680;2022-11-24T08:20:06;96944.25;;;8.81;57.45
55171;BME280;41060;47.510;8.680;2022-11-24T08:22:34;96957.03;;;8.98;57.68
55171;BME280;41060;47.510;8.680;2022-11-24T08:25:00;96948.91;;;9.12;58.08
55171;BME280;41060;47.510;8.680;2022-11-24T08:27:29;96925.03;;;9.25;57.99
55171;BME280;41060;47.510;8.680;2022-11-24T08:29:57;96948.59;;;9.61;57.77
55171;BME280;41060;47.510;8.680;2022-11-24T08:32:24;96931.88;;;8.81;59.28
55171;BME280;41060;47.510;8.680;2022-11-24T08:34:51;96957.94;;;8.86;60.08
55171;BME280;41060;47.510;8.680;2022-11-24T08:37:17;96962.50;;;8.84;60.69
55171;BME280;41060;47.510;8.680;2022-11-24T08:39:44;96961.78;;;8.82;60.63
55171;BME280;41060;47.510;8.680;2022-11-24T08:42:11;96957.81;;;8.87;60.16
55171;BME280;41060;47.510;8.680;2022-11-24T08:44:39;96956.13;;;8.86;60.39
55171;BME280;41060;47.510;8.680;2022-11-24T08:47:06;96967.00;;;8.70;60.46
55171;BME280;41060;47.510;8.680;2022-11-24T08:49:33;96968.09;;;8.44;60.82
55171;BME280;41060;47.510;8.680;2022-11-24T08:51:59;96982.78;;;8.35;60.96
55171;BME280;41060;47.510;8.680;2022-11-24T08:54:26;96990.72;;;8.59;60.54
55171;BME280;41060;47.510;8.680;2022-11-24T08:56:53;96991.47;;;8.25;60.50
55171;BME280;41060;47.510;8.680;2022-11-24T08:59:20;96971.69;;;8.43;60.52
55171;BME280;41060;47.510;8.680;2022-11-24T09:01:50;96990.75;;;8.23;60.85
55171;BME280;41060;47.510;8.680;2022-11-24T09:04:17;96977.97;;;8.53;60.69
55171;BME280;41060;47.510;8.680;2022-11-24T09:06:44;96993.25;;;8.61;59.97
55171;BME280;41060;47.510;8.680;2022-11-24T09:09:11;96991.00;;;8.44;59.94
55171;BME280;41060;47.510;8.680;2022-11-24T09:11:38;97002.88;;;8.49;60.06
55171;BME280;41060;47.510;8.680;2022-11-24T09:14:05;96997.78;;;8.59;60.10
55171;BME280;41060;47.510;8.680;2022-11-24T09:16:31;97010.41;;;8.43;59.74
55171;BME280;41060;47.510;8.680;2022-11-24T09:19:02;97002.56;;;8.17;60.80
55171;BME280;41060;47.510;8.680;2022-11-24T09:21:29;96989.56;;;8.27;61.41
55171;BME280;41060;47.510;8.680;2022-11-24T09:23:57;97002.00;;;8.37;60.96
55171;BME280;41060;47.510;8.680;2022-11-24T09:26:26;97004.94;;;8.33;61.04
55171;BME280;41060;47.510;8.680;2022-11-24T09:28:54;96998.47;;;8.50;60.75
55171;BME280;41060;47.510;8.680;2022-11-24T09:31:23;96998.38;;;8.62;60.99
55171;BME280;41060;47.510;8.680;2022-11-24T09:33:50;96981.72;;;8.38;61.23
55171;BME280;41060;47.510;8.680;2022-11-24T09:36:20;97006.31;;;8.38;60.86
55171;BME280;41060;47.510;8.680;2022-11-24T09:38:46;97002.31;;;8.57;60.82
55171;BME280;41060;47.510;8.680;2022-11-24T09:41:34;97012.31;;;8.88;60.79
55171;BME280;41060;47.510;8.680;2022-11-24T09:44:07;97001.16;;;9.20;60.01
55171;BME280;41060;47.510;8.680;2022-11-24T09:46:45;97012.00;;;9.39;59.20
55171;BME280;41060;47.510;8.680;2022-11-24T09:49:16;97025.13;;;9.05;59.59
55171;BME280;41060;47.510;8.680;2022-11-24T09:51:50;97027.03;;;9.03;59.57
55171;BME280;41060;47.510;8.680;2022-11-24T09:54:20;97013.13;;;9.47;59.60
55171;BME280;41060;47.510;8.680;2022-11-24T09:56:50;97019.63;;;9.66;58.89
55171;BME280;41060;47.510;8.680;2022-11-24T09:59:19;97022.88;;;9.80;58.09
55171;BME280;41060;47.510;8.680;2022-11-24T10:01:48;97028.78;;;9.95;58.35
55171;BME280;41060;47.510;8.680;2022-11-24T10:04:19;97033.97;;;9.85;57.80
55171;BME280;41060;47.510;8.680;2022-11-24T10:06:55;97029.84;;;9.81;57.41
55171;BME280;41060;47.510;8.680;2022-11-24T10:09:41;97014.47;;;9.64;57.98
55171;BME280;41060;47.510;8.680;2022-11-24T10:12:29;97035.50;;;9.88;58.20
55171;BME280;41060;47.510;8.680;2022-11-24T10:15:03;97034.66;;;10.21;58.27
55171;BME280;41060;47.510;8.680;2022-11-24T10:17:43;97015.31;;;10.09;57.06
55171;BME280;41060;47.510;8.680;2022-11-24T10:20:21;97036.00;;;10.15;57.76
55171;BME280;41060;47.510;8.680;2022-11-24T10:23:03;97032.03;;;10.21;56.75
55171;BME280;41060;47.510;8.680;2022-11-24T10:25:41;97038.47;;;10.50;57.21
55171;BME280;41060;47.510;8.680;2022-11-24T10:28:13;97040.63;;;10.56;56.58
55171;BME280;41060;47.510;8.680;2022-11-24T10:30:41;97040.38;;;10.59;56.77
55171;BME280;41060;47.510;8.680;2022-11-24T10:33:14;97040.63;;;10.56;56.44
55171;BME280;41060;47.510;8.680;2022-11-24T10:35:46;97032.81;;;10.66;56.17
55171;BME280;41060;47.510;8.680;2022-11-24T10:38:29;97034.03;;;10.40;55.93
55171;BME280;41060;47.510;8.680;2022-11-24T10:41:01;97048.50;;;10.13;55.90
55171;BME280;41060;47.510;8.680;2022-11-24T10:43:28;97045.13;;;10.11;56.35
55171;BME280;41060;47.510;8.680;2022-11-24T10:45:58;97041.53;;;10.01;56.40
55171;BME280;41060;47.510;8.680;2022-11-24T10:48:29;97044.72;;;10.49;56.27
55171;BME280;41060;47.510;8.680;2022-11-24T10:51:19;97020.06;;;10.49;55.27
55171;BME280;41060;47.510;8.680;2022-11-24T10:53:57;97042.97;;;10.27;55.28
55171;BME280;41060;47.510;8.680;2022-11-24T10:56:36;97045.69;;;10.48;55.71
55171;BME280;41060;47.510;8.680;2022-11-24T10:59:28;97044.00;;;10.58;55.09
55171;BME280;41060;47.510;8.680;2022-11-24T11:01:56;97041.47;;;10.57;55.13
55171;BME280;41060;47.510;8.680;2022-11-24T11:04:26;97041.94;;;10.62;54.57
55171;BME280;41060;47.510;8.680;2022-11-24T11:07:06;97005.78;;;10.29;54.45
55171;BME280;41060;47.510;8.680;2022-11-24T11:09:35;97051.59;;;10.52;54.81
55171;BME280;41060;47.510;8.680;2022-11-24T11:12:08;96997.69;;;10.42;54.42
55171;BME280;41060;47.510;8.680;2022-11-24T11:14:36;97050.72;;;10.74;53.97
55171;BME280;41060;47.510;8.680;2022-11-24T11:17:31;97060.81;;;10.80;53.91
55171;BME280;41060;47.510;8.680;2022-11-24T11:20:05;97061.81;;;10.67;54.11
55171;BME280;41060;47.510;8.680;2022-11-24T11:22:35;97055.44;;;10.48;54.80
55171;BME280;41060;47.510;8.680;2022-11-24T11:25:17;97049.22;;;10.15;55.45
55171;BME280;41060;47.510;8.680;2022-11-24T11:27:44;97050.97;;;10.48;54.69
55171;BME280;41060;47.510;8.680;2022-11-24T11:30:17;97056.44;;;10.24;55.25
55171;BME280;41060;47.510;8.680;2022-11-24T11:32:50;97062.91;;;10.54;55.07
55171;BME280;41060;47.510;8.680;2022-11-24T11:35:18;97063.25;;;10.71;54.58
55171;BME280;41060;47.510;8.680;2022-11-24T11:37:46;97064.72;;;10.42;54.93
55171;BME280;41060;47.510;8.680;2022-11-24T11:40:16;97056.63;;;10.55;55.34
55171;BME280;41060;47.510;8.680;2022-11-24T11:42:48;97068.06;;;10.55;54.65
55171;BME280;41060;47.510;8.680;2022-11-24T11:45:20;97073.38;;;10.44;55.40
55171;BME280;41060;47.510;8.680;2022-11-24T11:47:52;97070.97;;;10.52;55.52
55171;BME280;41060;47.510;8.680;2022-11-24T11:50:24;97067.34;;;10.64;54.97
55171;BME280;41060;47.510;8.680;2022-11-24T11:52:59;97072.75;;;10.74;55.11
55171;BME280;41060;47.510;8.680;2022-11-24T11:55:36;97065.16;;;10.81;54.63
55171;BME280;41060;47.510;8.680;2022-11-24T11:58:20;97052.31;;;10.65;54.97
55171;BME280;41060;47.510;8.680;2022-11-24T12:00:57;97069.38;;;10.83;55.11
55171;BME280;41060;47.510;8.680;2022-11-24T12:03:49;97027.31;;;10.36;55.18
55171;BME280;41060;47.510;8.680;2022-11-24T12:06:32;97072.88;;;10.84;55.33
55171;BME280;41060;47.510;8.680;2022-11-24T12:09:12;97036.88;;;10.70;54.98
55171;BME280;41060;47.510;8.680;2022-11-24T12:11:48;97053.03;;;10.67;55.48
55171;BME280;41060;47.510;8.680;2022-11-24T12:14:25;97057.09;;;11.14;54.65
55171;BME280;41060;47.510;8.680;2022-11-24T12:17:02;97055.88;;;11.18;54.58
55171;BME280;41060;47.510;8.680;2022-11-24T12:19:44;97047.09;;;11.18;54.02
55171;BME280;41060;47.510;8.680;2022-11-24T12:22:21;97048.34;;;11.34;53.86
55171;BME280;41060;47.510;8.680;2022-11-24T12:24:55;97051.25;;;10.99;54.59
55171;BME280;41060;47.510;8.680;2022-11-24T12:27:31;97065.78;;;10.73;54.74
55171;BME280;41060;47.510;8.680;2022-11-24T12:30:08;97070.22;;;10.84;55.03
55171;BME280;41060;47.510;8.680;2022-11-24T12:33:11;97074.78;;;11.14;54.58
55171;BME280;41060;47.510;8.680;2022-11-24T12:35:44;97079.31;;;11.34;54.31
55171;BME280;41060;47.510;8.680;2022-11-24T12:38:24;97076.81;;;11.21;54.22
55171;BME280;41060;47.510;8.680;2022-11-24T12:41:12;97083.22;;;11.19;54.26
55171;BME280;41060;47.510;8.680;2022-11-24T12:43:49;97076.13;;;11.19;53.78
55171;BME280;41060;47.510;8.680;2022-11-24T12:46:21;97043.47;;;11.19;54.11
55171;BME280;41060;47.510;8.680;2022-11-24T12:49:02;97040.50;;;11.12;54.00
55171;BME280;41060;47.510;8.680;2022-11-24T12:51:36;97069.50;;;11.14;54.22
55171;BME280;41060;47.510;8.680;2022-11-24T12:54:08;97064.25;;;11.55;53.37
55171;BME280;41060;47.510;8.680;2022-11-24T12:56:41;97056.94;;;11.68;53.21
55171;BME280;41060;47.510;8.680;2022-11-24T12:59:19;97061.50;;;11.66;53.14
55171;BME280;41060;47.510;8.680;2022-11-24T13:01:57;97061.59;;;11.34;53.11
55171;BME280;41060;47.510;8.680;2022-11-24T13:04:31;97059.44;;;11.28;52.89
55171;BME280;41060;47.510;8.680;2022-11-24T13:07:02;97066.03;;;11.13;52.65
55171;BME280;41060;47.510;8.680;2022-11-24T13:09:29;97070.94;;;11.18;52.82
55171;BME280;41060;47.510;8.680;2022-11-24T13:12:09;97067.38;;;11.28;52.96
55171;BME280;41060;47.510;8.680;2022-11-24T13:14:41;97071.81;;;11.39;52.54
55171;BME280;41060;47.510;8.680;2022-11-24T13:17:23;97071.81;;;11.39;52.25
55171;BME280;41060;47.510;8.680;2022-11-24T13:20:12;97023.63;;;11.34;51.76
55171;BME280;41060;47.510;8.680;2022-11-24T13:22:44;97070.13;;;11.79;51.38